Time;durP1;ratioP1;P1;durP2;ratioP2;P2;SDS_P1;SDS_P2;PMS_P1;PMS_P2;Temp;Humidity;BMP_temperature;BMP_pressure;BME280_temperature;BME280_humidity;BME280_pressure;Samples;Min_cycle;Max_cycle;Signal;HPM_P1;HPM_P2
2022/12/14 00:07:53;;;;;;;42.20;17.50;;;;;;;-2.05;80.06;99948.41;658313;1314;138843;-83
2022/12/14 00:22:57;;;;;;;45.60;17.50;;;;;;;-2.25;80.07;99949.40;658172;1315;138726;-83
2022/12/14 00:38:00;;;;;;;41.60;17.20;;;;;;;-2.42;80.22;99952.45;658231;1315;204759;-83
2022/12/14 00:53:03;;;;;;;45.80;20.40;;;;;;;-2.63;80.20;99950.86;658316;1311;138902;-82
2022/12/14 01:08:07;;;;;;;38.40;17.70;;;;;;;-2.74;80.66;99943.10;658867;1314;138858;-83
2022/12/14 01:23:10;;;;;;;42.20;16.40;;;;;;;-2.91;80.80;99944.22;658775;1309;139019;-82
2022/12/14 01:38:14;;;;;;;38.60;17.40;;;;;;;-3.02;81.06;99948.73;658327;1314;138850;-82
2022/12/14 01:53:21;;;;;;;32.10;16.20;;;;;;;-2.99;80.83;99937.17;658381;1314;138889;-83
2022/12/14 02:08:25;;;;;;;36.90;14.00;;;;;;;-3.11;80.29;99944.10;658902;1313;138790;-83
2022/12/14 02:23:51;;;;;;;36.90;15.30;;;;;;;-3.23;80.48;99936.86;658526;1314;138697;-82
2022/12/14 02:39:23;;;;;;;28.10;12.70;;;;;;;-3.36;80.83;99929.26;658898;1313;138781;-82
2022/12/14 02:54:30;;;;;;;27.50;12.80;;;;;;;-3.41;80.69;99938.70;658743;1313;138780;-82
2022/12/14 03:09:33;;;;;;;36.40;15.50;;;;;;;-3.56;80.33;99939.23;659137;1309;138661;-82
2022/12/14 03:24:44;;;;;;;163.10;60.50;;;;;;;-3.86;80.20;99927.44;658682;1299;139039;-82
2022/12/14 03:39:48;;;;;;;45.10;16.10;;;;;;;-4.06;79.96;99915.30;658350;1315;138828;-82
2022/12/14 03:55:12;;;;;;;38.80;20.40;;;;;;;-4.16;79.75;99922.46;658251;1315;138787;-82
2022/12/14 04:26:04;;;;;;;47.30;18.50;;;;;;;-4.47;79.62;99917.31;658623;1315;138937;-82
2022/12/14 04:41:13;;;;;;;47.50;22.10;;;;;;;-4.73;79.53;99919.96;658085;1315;139208;-81
2022/12/14 04:56:16;;;;;;;44.90;20.40;;;;;;;-4.74;79.56;99923.09;658206;1314;139139;-82
2022/12/14 05:11:29;;;;;;;42.80;18.60;;;;;;;-4.72;78.14;99912.27;658420;1315;139672;-81
2022/12/14 05:26:52;;;;;;;48.10;17.90;;;;;;;-4.73;78.85;99906.85;658507;1315;139146;-82
2022/12/14 05:41:55;;;;;;;65.30;24.00;;;;;;;-4.76;79.07;99905.74;657598;1315;139035;-81
2022/12/14 05:56:59;;;;;;;119.60;37.40;;;;;;;-4.78;78.68;99902.55;658034;1315;139090;-81
2022/12/14 06:12:02;;;;;;;90.80;32.10;;;;;;;-4.95;78.21;99902.20;658558;1315;139320;-81
2022/12/14 06:27:06;;;;;;;133.00;54.00;;;;;;;-5.02;77.99;99906.69;658606;1315;139024;-82
2022/12/14 06:42:10;;;;;;;85.80;38.50;;;;;;;-5.34;78.35;99902.50;658658;1316;139280;-81
2022/12/14 06:57:14;;;;;;;87.30;37.00;;;;;;;-5.54;79.64;99913.62;658641;1314;138965;-81
2022/12/14 07:12:17;;;;;;;88.10;36.30;;;;;;;-5.60;80.06;99915.33;658445;1312;139136;-82
2022/12/14 07:27:22;;;;;;;78.60;27.70;;;;;;;-5.81;79.82;99917.07;658892;1300;139018;-84
2022/12/14 07:42:28;;;;;;;80.00;28.60;;;;;;;-6.00;81.05;99938.21;658882;1313;139139;-84
2022/12/14 07:57:34;;;;;;;71.10;29.00;;;;;;;-5.87;84.20;99955.73;658824;1308;139170;-85
2022/12/14 08:12:38;;;;;;;101.00;35.70;;;;;;;-5.51;86.77;99959.39;659028;1313;139266;-85
2022/12/14 08:27:47;;;;;;;65.80;24.80;;;;;;;-5.16;87.79;99972.08;658634;1315;139292;-85
2022/12/14 08:42:54;;;;;;;81.70;32.90;;;;;;;-4.78;87.80;99964.34;658181;1315;139147;-84
2022/12/14 08:58:01;;;;;;;80.80;27.80;;;;;;;-4.32;86.46;99943.47;658600;1315;139069;-81
2022/12/14 09:13:06;;;;;;;85.60;27.70;;;;;;;-4.10;86.64;99930.61;658789;1315;139140;-84
2022/12/14 09:28:10;;;;;;;96.70;37.80;;;;;;;-3.82;86.95;99930.02;658522;1315;139159;-85
2022/12/14 09:43:34;;;;;;;105.80;38.60;;;;;;;-3.60;86.96;99914.05;659221;1311;139245;-85
2022/12/14 09:58:48;;;;;;;79.40;29.30;;;;;;;-3.33;86.16;99906.27;659173;1313;139363;-86
2022/12/14 10:14:22;;;;;;;94.30;37.10;;;;;;;-3.20;85.67;99897.56;659602;1313;139467;-84
2022/12/14 10:29:46;;;;;;;88.00;33.30;;;;;;;-3.01;85.49;99872.04;659633;1313;139062;-85
2022/12/14 10:45:05;;;;;;;71.90;27.10;;;;;;;-2.96;84.79;99849.81;659613;1313;139030;-85
2022/12/14 11:00:28;;;;;;;145.30;48.60;;;;;;;-2.78;83.67;99814.66;659413;1313;139159;-85
2022/12/14 11:15:39;;;;;;;91.60;34.00;;;;;;;-2.50;83.46;99804.61;659074;1309;139207;-84
2022/12/14 11:30:59;;;;;;;158.20;44.80;;;;;;;-2.10;81.39;99789.73;658769;1315;140242;-84
2022/12/14 11:46:04;;;;;;;193.20;51.30;;;;;;;-1.27;81.69;99768.84;659204;1313;139126;-84
2022/12/14 12:01:14;;;;;;;121.40;41.60;;;;;;;-1.01;79.31;99749.25;659517;1313;139129;-84
2022/12/14 12:16:21;;;;;;;80.40;30.30;;;;;;;-0.59;77.35;99739.14;659050;1307;139602;-83
2022/12/14 12:31:33;;;;;;;72.60;30.00;;;;;;;-0.66;76.09;99739.50;659440;1313;139316;-83
2022/12/14 12:46:44;;;;;;;74.50;26.70;;;;;;;-1.35;75.57;99725.17;659235;1313;155650;-84
2022/12/14 13:02:32;;;;;;;83.70;33.70;;;;;;;-0.51;73.74;99718.08;659267;1313;139117;-83
2022/12/14 13:17:42;;;;;;;109.70;40.70;;;;;;;-0.15;71.58;99720.59;659534;1307;139307;-83
2022/12/14 13:32:55;;;;;;;131.40;51.00;;;;;;;0.02;69.62;99709.17;659217;1313;139428;-84
2022/12/14 13:47:59;;;;;;;190.80;66.10;;;;;;;-1.30;70.19;99697.42;659235;1313;139240;-83
2022/12/14 14:03:03;;;;;;;328.10;100.10;;;;;;;-2.50;71.52;99693.98;659655;1313;139228;-83
2022/12/14 14:18:14;;;;;;;349.90;101.00;;;;;;;-3.31;71.68;99669.30;659408;1313;139292;-82
2022/12/14 14:33:42;;;;;;;411.40;119.30;;;;;;;-3.78;72.15;99656.81;659314;1308;139462;-82
2022/12/14 14:48:53;;;;;;;346.60;99.00;;;;;;;-4.29;72.10;99635.47;661304;1306;140119;-83
2022/12/14 15:04:02;;;;;;;391.40;114.70;;;;;;;-4.68;72.47;99636.70;659525;1313;139284;-83
2022/12/14 15:19:22;;;;;;;444.90;135.90;;;;;;;-4.93;72.78;99633.98;661554;1306;139288;-83
2022/12/14 15:34:29;;;;;;;229.30;69.00;;;;;;;-5.20;72.82;99632.86;659551;1313;139745;-82
2022/12/14 15:49:33;;;;;;;221.50;69.50;;;;;;;-5.46;72.79;99624.66;659251;1313;139145;-83
2022/12/14 16:04:36;;;;;;;306.70;84.70;;;;;;;-5.65;73.51;99606.69;659444;1299;139586;-84
2022/12/14 16:19:41;;;;;;;457.60;144.40;;;;;;;-5.83;73.37;99577.79;659545;1307;139274;-83
2022/12/14 16:35:02;;;;;;;342.70;115.00;;;;;;;-5.93;74.05;99560.05;659338;1307;139500;-83
2022/12/14 16:50:34;;;;;;;280.40;84.90;;;;;;;-5.95;74.56;99545.33;658901;1314;140347;-83
2022/12/14 17:06:01;;;;;;;318.70;89.10;;;;;;;-5.94;74.66;99536.07;659033;1313;139330;-83
2022/12/14 17:21:07;;;;;;;159.40;53.40;;;;;;;-5.85;74.51;99515.71;659266;1307;139341;-83
2022/12/14 17:36:12;;;;;;;318.40;92.60;;;;;;;-6.03;74.44;99504.20;658997;1313;139233;-83
2022/12/14 17:51:28;;;;;;;349.30;107.40;;;;;;;-6.25;75.39;99493.85;659038;1307;139459;-83
2022/12/14 18:06:35;;;;;;;308.80;93.20;;;;;;;-6.24;76.05;99472.52;659274;1307;139965;-83
2022/12/14 18:21:39;;;;;;;228.00;63.30;;;;;;;-6.12;76.58;99458.88;659673;1313;139262;-83
2022/12/14 18:36:44;;;;;;;309.70;90.40;;;;;;;-6.10;77.41;99450.48;658905;1309;139532;-82
2022/12/14 18:51:48;;;;;;;239.90;71.50;;;;;;;-6.01;77.82;99445.56;658751;1313;139336;-83
2022/12/14 19:06:52;;;;;;;;;;;;;;;-5.82;76.50;99434.69;658978;1313;139310;-83
2022/12/14 19:21:56;;;;;;;493.40;118.20;;;;;;;-5.90;76.43;99423.71;661479;1306;125308;-82
2022/12/14 19:37:00;;;;;;;243.90;59.70;;;;;;;-6.01;76.50;99424.27;659008;1311;140219;-82
2022/12/14 19:52:06;;;;;;;295.30;73.90;;;;;;;-6.20;76.23;99427.27;659393;1313;139308;-83
2022/12/14 20:07:10;;;;;;;323.20;90.80;;;;;;;-6.28;75.99;99421.95;659180;1313;139389;-83
2022/12/14 20:22:14;;;;;;;314.70;90.20;;;;;;;-6.33;75.61;99418.88;658919;1314;139646;-83
2022/12/14 20:37:18;;;;;;;264.60;79.50;;;;;;;-6.45;75.37;99420.63;659661;1310;139362;-82
2022/12/14 20:52:23;;;;;;;271.60;78.80;;;;;;;-6.58;75.88;99401.09;659410;1307;139762;-82
2022/12/14 21:07:27;;;;;;;354.50;102.30;;;;;;;-6.66;75.49;99393.38;658581;1314;139285;-83
2022/12/14 21:22:34;;;;;;;217.60;62.80;;;;;;;-6.73;75.82;99390.02;658146;1314;139453;-83
2022/12/14 21:37:37;;;;;;;138.10;45.10;;;;;;;-6.63;76.33;99374.24;658889;1311;139349;-82
2022/12/14 21:52:42;;;;;;;;;;;;;;;-6.65;76.46;99355.25;659082;1308;140953;-82
2022/12/14 22:07:46;;;;;;;141.70;41.20;;;;;;;-6.49;76.17;99345.88;659443;1313;125240;-83
2022/12/14 22:22:50;;;;;;;117.00;39.50;;;;;;;-6.43;76.40;99327.80;659123;1313;139165;-83
2022/12/14 22:37:54;;;;;;;133.00;42.60;;;;;;;-6.39;76.70;99313.89;659305;1313;139272;-82
2022/12/14 22:52:57;;;;;;;108.10;32.50;;;;;;;-6.41;76.43;99290.81;658677;1314;139182;-83
2022/12/14 23:08:00;;;;;;;95.00;34.70;;;;;;;-6.43;76.78;99278.96;659634;1312;139364;-82
